sensor_id;sensor_type;location;lat;lon;timestamp;P1;durP1;ratioP1;P2;durP2;ratioP2
14074;SDS011;12831;52.392;13.066;2023-04-24T00:01:02;6.72;;;4.72;;
14074;SDS011;12831;52.392;13.066;2023-04-24T00:03:28;7.43;;;4.95;;
14074;SDS011;12831;52.392;13.066;2023-04-24T00:05:55;6.75;;;5.70;;
14074;SDS011;12831;52.392;13.066;2023-04-24T00:08:21;8.57;;;4.70;;
14074;SDS011;12831;52.392;13.066;2023-04-24T00:10:48;7.72;;;4.57;;
14074;SDS011;12831;52.392;13.066;2023-04-24T00:13:13;5.88;;;4.57;;
14074;SDS011;12831;52.392;13.066;2023-04-24T00:15:39;7.30;;;5.32;;
14074;SDS011;12831;52.392;13.066;2023-04-24T00:18:05;6.07;;;5.13;;
14074;SDS011;12831;52.392;13.066;2023-04-24T00:20:31;7.38;;;4.97;;
14074;SDS011;12831;52.392;13.066;2023-04-24T00:23:01;6.55;;;5.30;;
14074;SDS011;12831;52.392;13.066;2023-04-24T00:25:26;8.05;;;5.40;;
14074;SDS011;12831;52.392;13.066;2023-04-24T00:27:52;6.25;;;5.07;;
14074;SDS011;12831;52.392;13.066;2023-04-24T00:30:18;6.35;;;4.97;;
14074;SDS011;12831;52.392;13.066;2023-04-24T00:32:44;6.95;;;4.95;;
14074;SDS011;12831;52.392;13.066;2023-04-24T00:35:09;7.20;;;5.10;;
14074;SDS011;12831;52.392;13.066;2023-04-24T00:37:36;7.55;;;5.13;;
14074;SDS011;12831;52.392;13.066;2023-04-24T00:40:01;8.38;;;4.38;;
14074;SDS011;12831;52.392;13.066;2023-04-24T00:42:28;5.82;;;4.50;;
14074;SDS011;12831;52.392;13.066;2023-04-24T00:44:54;7.13;;;5.35;;
14074;SDS011;12831;52.392;13.066;2023-04-24T00:47:20;7.90;;;4.72;;
14074;SDS011;12831;52.392;13.066;2023-04-24T00:49:47;6.32;;;4.68;;
14074;SDS011;12831;52.392;13.066;2023-04-24T00:52:13;5.53;;;4.45;;
14074;SDS011;12831;52.392;13.066;2023-04-24T00:54:43;6.50;;;5.13;;
14074;SDS011;12831;52.392;13.066;2023-04-24T00:57:10;6.43;;;4.80;;
14074;SDS011;12831;52.392;13.066;2023-04-24T00:59:35;5.82;;;4.32;;
14074;SDS011;12831;52.392;13.066;2023-04-24T01:02:02;7.28;;;4.90;;
14074;SDS011;12831;52.392;13.066;2023-04-24T01:04:28;5.57;;;4.65;;
14074;SDS011;12831;52.392;13.066;2023-04-24T01:06:54;7.50;;;5.13;;
14074;SDS011;12831;52.392;13.066;2023-04-24T01:09:20;7.80;;;4.70;;
14074;SDS011;12831;52.392;13.066;2023-04-24T01:11:47;6.90;;;5.22;;
14074;SDS011;12831;52.392;13.066;2023-04-24T01:14:12;5.68;;;4.45;;
14074;SDS011;12831;52.392;13.066;2023-04-24T01:16:38;7.88;;;5.07;;
14074;SDS011;12831;52.392;13.066;2023-04-24T01:19:05;6.38;;;5.28;;
14074;SDS011;12831;52.392;13.066;2023-04-24T01:21:31;6.07;;;4.72;;
14074;SDS011;12831;52.392;13.066;2023-04-24T01:24:00;8.00;;;5.82;;
14074;SDS011;12831;52.392;13.066;2023-04-24T01:26:25;6.47;;;5.55;;
14074;SDS011;12831;52.392;13.066;2023-04-24T01:28:51;7.60;;;5.28;;
14074;SDS011;12831;52.392;13.066;2023-04-24T01:31:18;6.15;;;5.50;;
14074;SDS011;12831;52.392;13.066;2023-04-24T01:33:44;5.90;;;5.22;;
14074;SDS011;12831;52.392;13.066;2023-04-24T01:36:10;6.20;;;5.38;;
14074;SDS011;12831;52.392;13.066;2023-04-24T01:38:36;7.90;;;5.15;;
14074;SDS011;12831;52.392;13.066;2023-04-24T01:41:02;6.55;;;5.18;;
14074;SDS011;12831;52.392;13.066;2023-04-24T01:43:28;5.82;;;4.82;;
14074;SDS011;12831;52.392;13.066;2023-04-24T01:45:54;9.63;;;5.65;;
14074;SDS011;12831;52.392;13.066;2023-04-24T01:48:20;9.82;;;5.28;;
14074;SDS011;12831;52.392;13.066;2023-04-24T01:50:45;5.82;;;4.90;;
14074;SDS011;12831;52.392;13.066;2023-04-24T01:53:11;10.52;;;6.03;;
14074;SDS011;12831;52.392;13.066;2023-04-24T01:55:37;6.63;;;5.15;;
14074;SDS011;12831;52.392;13.066;2023-04-24T01:58:03;7.63;;;5.57;;
14074;SDS011;12831;52.392;13.066;2023-04-24T02:00:29;7.57;;;5.65;;
14074;SDS011;12831;52.392;13.066;2023-04-24T02:02:55;7.53;;;5.82;;
14074;SDS011;12831;52.392;13.066;2023-04-24T02:05:21;8.50;;;6.63;;
14074;SDS011;12831;52.392;13.066;2023-04-24T02:07:47;8.70;;;5.38;;
14074;SDS011;12831;52.392;13.066;2023-04-24T02:10:12;6.18;;;5.32;;
14074;SDS011;12831;52.392;13.066;2023-04-24T02:12:38;9.68;;;5.80;;
14074;SDS011;12831;52.392;13.066;2023-04-24T02:15:04;8.63;;;5.85;;
14074;SDS011;12831;52.392;13.066;2023-04-24T02:17:30;7.75;;;6.20;;
14074;SDS011;12831;52.392;13.066;2023-04-24T02:19:57;7.03;;;5.60;;
14074;SDS011;12831;52.392;13.066;2023-04-24T02:22:22;7.00;;;5.57;;
14074;SDS011;12831;52.392;13.066;2023-04-24T02:24:48;8.07;;;6.05;;
14074;SDS011;12831;52.392;13.066;2023-04-24T02:27:14;6.90;;;5.40;;
14074;SDS011;12831;52.392;13.066;2023-04-24T02:29:40;7.93;;;5.78;;
14074;SDS011;12831;52.392;13.066;2023-04-24T02:32:06;7.00;;;4.97;;
14074;SDS011;12831;52.392;13.066;2023-04-24T02:34:32;9.30;;;5.65;;
14074;SDS011;12831;52.392;13.066;2023-04-24T02:36:58;6.88;;;5.25;;
14074;SDS011;12831;52.392;13.066;2023-04-24T02:39:24;6.47;;;5.43;;
14074;SDS011;12831;52.392;13.066;2023-04-24T02:41:49;7.43;;;5.90;;
14074;SDS011;12831;52.392;13.066;2023-04-24T02:44:15;8.82;;;6.78;;
14074;SDS011;12831;52.392;13.066;2023-04-24T02:46:43;8.50;;;5.72;;
14074;SDS011;12831;52.392;13.066;2023-04-24T02:49:08;10.95;;;6.80;;
14074;SDS011;12831;52.392;13.066;2023-04-24T02:51:34;8.95;;;5.93;;
14074;SDS011;12831;52.392;13.066;2023-04-24T02:54:00;9.20;;;5.35;;
14074;SDS011;12831;52.392;13.066;2023-04-24T02:56:26;9.10;;;5.50;;
14074;SDS011;12831;52.392;13.066;2023-04-24T02:58:51;8.60;;;5.78;;
14074;SDS011;12831;52.392;13.066;2023-04-24T03:01:17;5.95;;;5.22;;
14074;SDS011;12831;52.392;13.066;2023-04-24T03:03:43;5.80;;;5.00;;
14074;SDS011;12831;52.392;13.066;2023-04-24T03:06:09;17.08;;;7.57;;
14074;SDS011;12831;52.392;13.066;2023-04-24T03:08:35;8.70;;;5.82;;
14074;SDS011;12831;52.392;13.066;2023-04-24T03:11:01;8.18;;;5.53;;
14074;SDS011;12831;52.392;13.066;2023-04-24T03:13:26;5.85;;;5.00;;
14074;SDS011;12831;52.392;13.066;2023-04-24T03:15:52;10.77;;;6.43;;
14074;SDS011;12831;52.392;13.066;2023-04-24T03:18:19;7.07;;;5.32;;
14074;SDS011;12831;52.392;13.066;2023-04-24T03:20:45;6.82;;;4.93;;
14074;SDS011;12831;52.392;13.066;2023-04-24T03:23:11;8.70;;;6.43;;
14074;SDS011;12831;52.392;13.066;2023-04-24T03:25:37;6.70;;;5.40;;
14074;SDS011;12831;52.392;13.066;2023-04-24T03:28:03;9.32;;;6.78;;
14074;SDS011;12831;52.392;13.066;2023-04-24T03:30:29;7.78;;;5.57;;
14074;SDS011;12831;52.392;13.066;2023-04-24T03:32:54;7.55;;;5.80;;
14074;SDS011;12831;52.392;13.066;2023-04-24T03:35:20;8.48;;;5.38;;
14074;SDS011;12831;52.392;13.066;2023-04-24T03:37:47;6.90;;;5.47;;
14074;SDS011;12831;52.392;13.066;2023-04-24T03:40:13;7.35;;;5.00;;
14074;SDS011;12831;52.392;13.066;2023-04-24T03:42:39;7.35;;;5.45;;
14074;SDS011;12831;52.392;13.066;2023-04-24T03:45:05;8.05;;;5.90;;
14074;SDS011;12831;52.392;13.066;2023-04-24T03:47:31;14.38;;;9.40;;
14074;SDS011;12831;52.392;13.066;2023-04-24T03:49:56;14.55;;;8.23;;
14074;SDS011;12831;52.392;13.066;2023-04-24T03:52:22;7.85;;;5.53;;
14074;SDS011;12831;52.392;13.066;2023-04-24T03:54:48;6.95;;;4.43;;
14074;SDS011;12831;52.392;13.066;2023-04-24T03:57:14;6.97;;;4.75;;
14074;SDS011;12831;52.392;13.066;2023-04-24T03:59:39;6.40;;;5.10;;
14074;SDS011;12831;52.392;13.066;2023-04-24T04:02:05;6.15;;;4.90;;
14074;SDS011;12831;52.392;13.066;2023-04-24T04:04:31;10.65;;;5.30;;
14074;SDS011;12831;52.392;13.066;2023-04-24T04:06:57;5.80;;;4.60;;
14074;SDS011;12831;52.392;13.066;2023-04-24T04:09:26;8.93;;;5.25;;
14074;SDS011;12831;52.392;13.066;2023-04-24T04:11:52;7.82;;;5.38;;
14074;SDS011;12831;52.392;13.066;2023-04-24T04:14:18;7.32;;;5.45;;
14074;SDS011;12831;52.392;13.066;2023-04-24T04:16:44;8.65;;;5.95;;
14074;SDS011;12831;52.392;13.066;2023-04-24T04:19:10;11.20;;;6.95;;
14074;SDS011;12831;52.392;13.066;2023-04-24T04:21:35;12.23;;;6.95;;
14074;SDS011;12831;52.392;13.066;2023-04-24T04:24:01;9.07;;;6.95;;
14074;SDS011;12831;52.392;13.066;2023-04-24T04:26:27;10.77;;;7.25;;
14074;SDS011;12831;52.392;13.066;2023-04-24T04:28:53;10.70;;;6.80;;
14074;SDS011;12831;52.392;13.066;2023-04-24T04:31:19;8.25;;;5.65;;
14074;SDS011;12831;52.392;13.066;2023-04-24T04:33:45;9.05;;;5.93;;
14074;SDS011;12831;52.392;13.066;2023-04-24T04:36:11;9.05;;;5.57;;
14074;SDS011;12831;52.392;13.066;2023-04-24T04:38:37;12.10;;;6.32;;
14074;SDS011;12831;52.392;13.066;2023-04-24T04:41:03;10.35;;;5.25;;
14074;SDS011;12831;52.392;13.066;2023-04-24T04:43:29;6.95;;;4.13;;
14074;SDS011;12831;52.392;13.066;2023-04-24T04:45:57;5.93;;;4.35;;
14074;SDS011;12831;52.392;13.066;2023-04-24T04:48:23;5.47;;;3.83;;
14074;SDS011;12831;52.392;13.066;2023-04-24T04:50:49;4.85;;;3.75;;
14074;SDS011;12831;52.392;13.066;2023-04-24T04:53:15;5.25;;;3.10;;
14074;SDS011;12831;52.392;13.066;2023-04-24T04:55:41;4.82;;;2.97;;
14074;SDS011;12831;52.392;13.066;2023-04-24T04:58:06;3.95;;;3.10;;
14074;SDS011;12831;52.392;13.066;2023-04-24T05:00:32;6.55;;;2.80;;
14074;SDS011;12831;52.392;13.066;2023-04-24T05:03:01;4.78;;;2.78;;
14074;SDS011;12831;52.392;13.066;2023-04-24T05:05:45;8.40;;;2.72;;
14074;SDS011;12831;52.392;13.066;2023-04-24T05:08:11;4.35;;;2.63;;
14074;SDS011;12831;52.392;13.066;2023-04-24T05:10:52;5.05;;;2.65;;
14074;SDS011;12831;52.392;13.066;2023-04-24T05:13:17;3.80;;;2.55;;
14074;SDS011;12831;52.392;13.066;2023-04-24T05:16:09;4.90;;;2.30;;
14074;SDS011;12831;52.392;13.066;2023-04-24T05:18:35;5.32;;;2.88;;
14074;SDS011;12831;52.392;13.066;2023-04-24T05:21:01;3.58;;;2.13;;
14074;SDS011;12831;52.392;13.066;2023-04-24T05:23:27;3.40;;;2.17;;
14074;SDS011;12831;52.392;13.066;2023-04-24T05:25:53;3.42;;;2.10;;
14074;SDS011;12831;52.392;13.066;2023-04-24T05:28:19;6.55;;;2.53;;
14074;SDS011;12831;52.392;13.066;2023-04-24T05:30:46;5.65;;;2.10;;
14074;SDS011;12831;52.392;13.066;2023-04-24T05:33:12;3.03;;;1.98;;
14074;SDS011;12831;52.392;13.066;2023-04-24T05:35:40;4.10;;;1.55;;
14074;SDS011;12831;52.392;13.066;2023-04-24T05:38:06;2.45;;;1.45;;
14074;SDS011;12831;52.392;13.066;2023-04-24T05:40:32;7.60;;;2.53;;
14074;SDS011;12831;52.392;13.066;2023-04-24T05:42:58;2.90;;;1.85;;
14074;SDS011;12831;52.392;13.066;2023-04-24T05:45:36;1.58;;;0.93;;
14074;SDS011;12831;52.392;13.066;2023-04-24T05:48:03;3.90;;;2.13;;
14074;SDS011;12831;52.392;13.066;2023-04-24T05:50:29;5.30;;;1.67;;
14074;SDS011;12831;52.392;13.066;2023-04-24T05:52:55;3.58;;;1.23;;
14074;SDS011;12831;52.392;13.066;2023-04-24T05:55:26;2.28;;;1.40;;
14074;SDS011;12831;52.392;13.066;2023-04-24T05:57:52;4.07;;;1.77;;
14074;SDS011;12831;52.392;13.066;2023-04-24T06:00:18;3.90;;;1.20;;
14074;SDS011;12831;52.392;13.066;2023-04-24T06:02:45;5.95;;;1.52;;
14074;SDS011;12831;52.392;13.066;2023-04-24T06:05:12;2.33;;;1.23;;
14074;SDS011;12831;52.392;13.066;2023-04-24T06:07:38;2.90;;;1.08;;
14074;SDS011;12831;52.392;13.066;2023-04-24T06:10:04;1.70;;;1.10;;
14074;SDS011;12831;52.392;13.066;2023-04-24T06:12:30;4.88;;;1.33;;
14074;SDS011;12831;52.392;13.066;2023-04-24T06:15:00;5.82;;;0.95;;
14074;SDS011;12831;52.392;13.066;2023-04-24T06:17:26;6.45;;;1.40;;
14074;SDS011;12831;52.392;13.066;2023-04-24T06:19:52;4.32;;;1.10;;
14074;SDS011;12831;52.392;13.066;2023-04-24T06:22:18;3.70;;;0.90;;
14074;SDS011;12831;52.392;13.066;2023-04-24T06:24:44;1.63;;;0.85;;
14074;SDS011;12831;52.392;13.066;2023-04-24T06:27:10;4.10;;;1.67;;
14074;SDS011;12831;52.392;13.066;2023-04-24T06:29:36;7.57;;;2.13;;
14074;SDS011;12831;52.392;13.066;2023-04-24T06:32:02;3.15;;;1.00;;
14074;SDS011;12831;52.392;13.066;2023-04-24T06:34:28;1.67;;;0.88;;
14074;SDS011;12831;52.392;13.066;2023-04-24T06:36:56;3.00;;;0.88;;
14074;SDS011;12831;52.392;13.066;2023-04-24T06:39:22;1.67;;;0.70;;
14074;SDS011;12831;52.392;13.066;2023-04-24T06:41:48;1.83;;;0.82;;
14074;SDS011;12831;52.392;13.066;2023-04-24T06:44:15;1.75;;;0.80;;
14074;SDS011;12831;52.392;13.066;2023-04-24T06:46:41;1.80;;;0.73;;
14074;SDS011;12831;52.392;13.066;2023-04-24T06:49:07;3.90;;;1.08;;
14074;SDS011;12831;52.392;13.066;2023-04-24T06:51:33;2.67;;;0.85;;
14074;SDS011;12831;52.392;13.066;2023-04-24T06:53:59;5.18;;;2.05;;
14074;SDS011;12831;52.392;13.066;2023-04-24T06:56:25;1.48;;;0.70;;
14074;SDS011;12831;52.392;13.066;2023-04-24T06:58:51;2.45;;;0.73;;
14074;SDS011;12831;52.392;13.066;2023-04-24T07:01:17;2.55;;;0.70;;
14074;SDS011;12831;52.392;13.066;2023-04-24T07:03:43;1.48;;;0.55;;
14074;SDS011;12831;52.392;13.066;2023-04-24T07:06:09;1.50;;;0.75;;
14074;SDS011;12831;52.392;13.066;2023-04-24T07:08:36;3.22;;;1.23;;
14074;SDS011;12831;52.392;13.066;2023-04-24T07:11:03;1.13;;;0.80;;
14074;SDS011;12831;52.392;13.066;2023-04-24T07:13:29;1.38;;;0.80;;
14074;SDS011;12831;52.392;13.066;2023-04-24T07:15:55;1.10;;;0.68;;
14074;SDS011;12831;52.392;13.066;2023-04-24T07:18:22;4.65;;;1.00;;
14074;SDS011;12831;52.392;13.066;2023-04-24T07:20:48;3.08;;;0.80;;
14074;SDS011;12831;52.392;13.066;2023-04-24T07:23:15;1.88;;;0.82;;
14074;SDS011;12831;52.392;13.066;2023-04-24T07:25:42;3.30;;;1.33;;
14074;SDS011;12831;52.392;13.066;2023-04-24T07:28:08;4.70;;;1.05;;
14074;SDS011;12831;52.392;13.066;2023-04-24T07:30:34;1.58;;;0.80;;
14074;SDS011;12831;52.392;13.066;2023-04-24T07:33:00;2.13;;;0.80;;
14074;SDS011;12831;52.392;13.066;2023-04-24T07:35:26;1.85;;;0.70;;
14074;SDS011;12831;52.392;13.066;2023-04-24T07:37:52;1.45;;;0.70;;
14074;SDS011;12831;52.392;13.066;2023-04-24T07:40:19;3.35;;;0.80;;
14074;SDS011;12831;52.392;13.066;2023-04-24T07:42:45;3.10;;;1.10;;
14074;SDS011;12831;52.392;13.066;2023-04-24T07:45:11;3.13;;;1.38;;
14074;SDS011;12831;52.392;13.066;2023-04-24T07:47:37;1.88;;;0.70;;
14074;SDS011;12831;52.392;13.066;2023-04-24T07:50:05;4.28;;;1.10;;
14074;SDS011;12831;52.392;13.066;2023-04-24T07:52:31;3.10;;;0.63;;
14074;SDS011;12831;52.392;13.066;2023-04-24T07:54:57;0.82;;;0.50;;
14074;SDS011;12831;52.392;13.066;2023-04-24T07:57:27;2.72;;;0.40;;
14074;SDS011;12831;52.392;13.066;2023-04-24T07:59:54;2.05;;;0.60;;
14074;SDS011;12831;52.392;13.066;2023-04-24T08:02:22;1.27;;;0.70;;
14074;SDS011;12831;52.392;13.066;2023-04-24T08:04:52;1.40;;;0.60;;
14074;SDS011;12831;52.392;13.066;2023-04-24T08:07:23;2.88;;;0.50;;
14074;SDS011;12831;52.392;13.066;2023-04-24T08:09:49;0.77;;;0.63;;
14074;SDS011;12831;52.392;13.066;2023-04-24T08:12:15;3.40;;;0.50;;
14074;SDS011;12831;52.392;13.066;2023-04-24T08:14:41;0.88;;;0.60;;
14074;SDS011;12831;52.392;13.066;2023-04-24T08:17:08;4.13;;;0.60;;
14074;SDS011;12831;52.392;13.066;2023-04-24T08:19:34;2.53;;;0.88;;
14074;SDS011;12831;52.392;13.066;2023-04-24T08:22:00;2.08;;;0.70;;
14074;SDS011;12831;52.392;13.066;2023-04-24T08:24:26;2.20;;;0.50;;
14074;SDS011;12831;52.392;13.066;2023-04-24T08:26:52;2.00;;;0.82;;
14074;SDS011;12831;52.392;13.066;2023-04-24T08:29:20;2.92;;;0.40;;
14074;SDS011;12831;52.392;13.066;2023-04-24T08:31:46;4.10;;;1.35;;
14074;SDS011;12831;52.392;13.066;2023-04-24T08:34:13;2.17;;;0.70;;
14074;SDS011;12831;52.392;13.066;2023-04-24T08:36:39;2.03;;;0.57;;
14074;SDS011;12831;52.392;13.066;2023-04-24T08:39:13;2.92;;;0.90;;
14074;SDS011;12831;52.392;13.066;2023-04-24T08:41:41;2.15;;;0.70;;
14074;SDS011;12831;52.392;13.066;2023-04-24T08:44:09;2.33;;;0.57;;
14074;SDS011;12831;52.392;13.066;2023-04-24T08:46:51;0.45;;;0.25;;
14074;SDS011;12831;52.392;13.066;2023-04-24T08:49:46;1.58;;;0.45;;
14074;SDS011;12831;52.392;13.066;2023-04-24T08:52:13;4.55;;;0.57;;
14074;SDS011;12831;52.392;13.066;2023-04-24T08:54:40;1.95;;;0.60;;
14074;SDS011;12831;52.392;13.066;2023-04-24T08:57:10;1.25;;;0.40;;
14074;SDS011;12831;52.392;13.066;2023-04-24T08:59:37;2.80;;;0.82;;
14074;SDS011;12831;52.392;13.066;2023-04-24T09:02:09;1.73;;;0.60;;
14074;SDS011;12831;52.392;13.066;2023-04-24T09:04:36;1.40;;;0.55;;
14074;SDS011;12831;52.392;13.066;2023-04-24T09:07:03;0.93;;;0.38;;
14074;SDS011;12831;52.392;13.066;2023-04-24T09:09:32;5.00;;;0.60;;
14074;SDS011;12831;52.392;13.066;2023-04-24T09:11:59;2.00;;;0.55;;
14074;SDS011;12831;52.392;13.066;2023-04-24T09:14:38;1.27;;;0.50;;
14074;SDS011;12831;52.392;13.066;2023-04-24T09:17:08;1.02;;;0.50;;
14074;SDS011;12831;52.392;13.066;2023-04-24T09:19:34;3.88;;;0.60;;
14074;SDS011;12831;52.392;13.066;2023-04-24T09:22:04;1.95;;;0.90;;
14074;SDS011;12831;52.392;13.066;2023-04-24T09:24:32;1.02;;;0.45;;
14074;SDS011;12831;52.392;13.066;2023-04-24T09:26:58;1.30;;;0.60;;
14074;SDS011;12831;52.392;13.066;2023-04-24T09:29:28;1.10;;;0.38;;
14074;SDS011;12831;52.392;13.066;2023-04-24T09:31:59;1.58;;;0.43;;
14074;SDS011;12831;52.392;13.066;2023-04-24T09:34:26;3.50;;;0.70;;
14074;SDS011;12831;52.392;13.066;2023-04-24T09:36:53;1.10;;;0.30;;
14074;SDS011;12831;52.392;13.066;2023-04-24T09:39:19;2.72;;;0.43;;
14074;SDS011;12831;52.392;13.066;2023-04-24T09:41:50;1.73;;;0.73;;
14074;SDS011;12831;52.392;13.066;2023-04-24T09:47:36;1.20;;;0.47;;
14074;SDS011;12831;52.392;13.066;2023-04-24T09:50:13;14.18;;;1.15;;
14074;SDS011;12831;52.392;13.066;2023-04-24T09:52:41;1.85;;;0.47;;
14074;SDS011;12831;52.392;13.066;2023-04-24T09:55:14;1.25;;;0.40;;
14074;SDS011;12831;52.392;13.066;2023-04-24T10:00:23;2.15;;;0.60;;
14074;SDS011;12831;52.392;13.066;2023-04-24T10:02:58;0.88;;;0.50;;
14074;SDS011;12831;52.392;13.066;2023-04-24T10:05:28;2.05;;;0.40;;
14074;SDS011;12831;52.392;13.066;2023-04-24T10:07:56;0.50;;;0.40;;
14074;SDS011;12831;52.392;13.066;2023-04-24T10:10:22;4.47;;;1.27;;
14074;SDS011;12831;52.392;13.066;2023-04-24T10:12:49;1.48;;;1.02;;
14074;SDS011;12831;52.392;13.066;2023-04-24T10:15:33;1.85;;;0.60;;
14074;SDS011;12831;52.392;13.066;2023-04-24T10:18:00;1.33;;;0.40;;
14074;SDS011;12831;52.392;13.066;2023-04-24T10:20:28;4.57;;;0.93;;
14074;SDS011;12831;52.392;13.066;2023-04-24T10:22:57;4.15;;;0.90;;
14074;SDS011;12831;52.392;13.066;2023-04-24T10:25:24;4.50;;;0.80;;
14074;SDS011;12831;52.392;13.066;2023-04-24T10:27:52;1.83;;;0.50;;
14074;SDS011;12831;52.392;13.066;2023-04-24T10:30:19;1.25;;;0.60;;
14074;SDS011;12831;52.392;13.066;2023-04-24T10:32:46;1.55;;;0.50;;
14074;SDS011;12831;52.392;13.066;2023-04-24T10:35:13;1.00;;;0.40;;
14074;SDS011;12831;52.392;13.066;2023-04-24T10:37:43;2.30;;;0.40;;
14074;SDS011;12831;52.392;13.066;2023-04-24T10:40:11;2.60;;;0.70;;
14074;SDS011;12831;52.392;13.066;2023-04-24T10:42:41;2.38;;;0.88;;
14074;SDS011;12831;52.392;13.066;2023-04-24T10:45:29;2.25;;;0.30;;
14074;SDS011;12831;52.392;13.066;2023-04-24T10:47:58;2.63;;;0.70;;
14074;SDS011;12831;52.392;13.066;2023-04-24T10:50:44;1.77;;;0.52;;
14074;SDS011;12831;52.392;13.066;2023-04-24T10:53:12;1.48;;;0.50;;
14074;SDS011;12831;52.392;13.066;2023-04-24T10:58:37;2.65;;;0.68;;
14074;SDS011;12831;52.392;13.066;2023-04-24T11:01:23;2.33;;;0.98;;
14074;SDS011;12831;52.392;13.066;2023-04-24T11:03:55;1.85;;;0.82;;
14074;SDS011;12831;52.392;13.066;2023-04-24T11:06:31;3.42;;;1.95;;
14074;SDS011;12831;52.392;13.066;2023-04-24T11:09:01;1.92;;;0.68;;
14074;SDS011;12831;52.392;13.066;2023-04-24T11:11:29;3.45;;;1.08;;
14074;SDS011;12831;52.392;13.066;2023-04-24T11:16:45;2.22;;;1.30;;
14074;SDS011;12831;52.392;13.066;2023-04-24T11:21:54;0.30;;;0.30;;
14074;SDS011;12831;52.392;13.066;2023-04-24T11:24:24;1.90;;;0.70;;
14074;SDS011;12831;52.392;13.066;2023-04-24T11:26:59;2.42;;;0.50;;
14074;SDS011;12831;52.392;13.066;2023-04-24T11:29:46;1.85;;;0.73;;
14074;SDS011;12831;52.392;13.066;2023-04-24T11:32:23;3.30;;;0.95;;
14074;SDS011;12831;52.392;13.066;2023-04-24T11:34:54;4.40;;;0.63;;
14074;SDS011;12831;52.392;13.066;2023-04-24T11:37:23;2.72;;;0.55;;
14074;SDS011;12831;52.392;13.066;2023-04-24T11:39:51;3.20;;;0.43;;
14074;SDS011;12831;52.392;13.066;2023-04-24T11:42:33;1.35;;;0.50;;
14074;SDS011;12831;52.392;13.066;2023-04-24T11:47:52;0.93;;;0.30;;
14074;SDS011;12831;52.392;13.066;2023-04-24T11:50:21;1.75;;;0.60;;
14074;SDS011;12831;52.392;13.066;2023-04-24T11:52:48;1.00;;;0.60;;
14074;SDS011;12831;52.392;13.066;2023-04-24T11:57:42;1.55;;;0.60;;
14074;SDS011;12831;52.392;13.066;2023-04-24T12:02:43;2.65;;;0.55;;
14074;SDS011;12831;52.392;13.066;2023-04-24T12:05:18;0.63;;;0.38;;
14074;SDS011;12831;52.392;13.066;2023-04-24T12:07:45;1.33;;;0.52;;
14074;SDS011;12831;52.392;13.066;2023-04-24T12:10:12;0.93;;;0.40;;
14074;SDS011;12831;52.392;13.066;2023-04-24T12:12:38;2.25;;;0.55;;
14074;SDS011;12831;52.392;13.066;2023-04-24T12:18:03;2.10;;;0.40;;
14074;SDS011;12831;52.392;13.066;2023-04-24T12:20:30;0.70;;;0.40;;
14074;SDS011;12831;52.392;13.066;2023-04-24T12:22:57;0.57;;;0.28;;
14074;SDS011;12831;52.392;13.066;2023-04-24T12:25:33;0.95;;;0.38;;
14074;SDS011;12831;52.392;13.066;2023-04-24T12:30:29;2.90;;;0.70;;
14074;SDS011;12831;52.392;13.066;2023-04-24T12:32:59;5.85;;;0.98;;
14074;SDS011;12831;52.392;13.066;2023-04-24T12:35:29;4.15;;;0.80;;
14074;SDS011;12831;52.392;13.066;2023-04-24T12:38:10;1.73;;;0.43;;
14074;SDS011;12831;52.392;13.066;2023-04-24T12:40:36;3.63;;;0.82;;
14074;SDS011;12831;52.392;13.066;2023-04-24T12:43:12;2.58;;;0.70;;
14074;SDS011;12831;52.392;13.066;2023-04-24T12:48:34;2.88;;;0.57;;
14074;SDS011;12831;52.392;13.066;2023-04-24T12:51:00;1.20;;;0.50;;
14074;SDS011;12831;52.392;13.066;2023-04-24T12:53:28;0.95;;;0.43;;
14074;SDS011;12831;52.392;13.066;2023-04-24T12:55:55;2.92;;;0.60;;
14074;SDS011;12831;52.392;13.066;2023-04-24T12:58:23;1.13;;;0.20;;
14074;SDS011;12831;52.392;13.066;2023-04-24T13:00:49;1.20;;;0.43;;
14074;SDS011;12831;52.392;13.066;2023-04-24T13:03:16;1.23;;;0.45;;
14074;SDS011;12831;52.392;13.066;2023-04-24T13:05:44;2.38;;;0.50;;
14074;SDS011;12831;52.392;13.066;2023-04-24T13:08:10;1.13;;;0.40;;
14074;SDS011;12831;52.392;13.066;2023-04-24T13:10:39;3.30;;;0.57;;
14074;SDS011;12831;52.392;13.066;2023-04-24T13:13:06;2.88;;;0.47;;
14074;SDS011;12831;52.392;13.066;2023-04-24T13:15:32;0.30;;;0.30;;
14074;SDS011;12831;52.392;13.066;2023-04-24T13:17:58;3.42;;;0.43;;
14074;SDS011;12831;52.392;13.066;2023-04-24T13:20:25;0.80;;;0.32;;
14074;SDS011;12831;52.392;13.066;2023-04-24T13:22:56;3.88;;;0.50;;
14074;SDS011;12831;52.392;13.066;2023-04-24T13:25:22;1.83;;;0.60;;
14074;SDS011;12831;52.392;13.066;2023-04-24T13:27:50;1.40;;;0.70;;
14074;SDS011;12831;52.392;13.066;2023-04-24T13:30:16;2.63;;;0.47;;
14074;SDS011;12831;52.392;13.066;2023-04-24T13:32:42;1.08;;;0.45;;
14074;SDS011;12831;52.392;13.066;2023-04-24T13:35:08;0.40;;;0.30;;
14074;SDS011;12831;52.392;13.066;2023-04-24T13:37:34;0.85;;;0.43;;
14074;SDS011;12831;52.392;13.066;2023-04-24T13:40:00;0.73;;;0.50;;
14074;SDS011;12831;52.392;13.066;2023-04-24T13:42:27;1.70;;;0.70;;
14074;SDS011;12831;52.392;13.066;2023-04-24T13:44:59;2.63;;;0.60;;
14074;SDS011;12831;52.392;13.066;2023-04-24T13:47:29;1.63;;;0.52;;
14074;SDS011;12831;52.392;13.066;2023-04-24T13:49:55;2.20;;;0.73;;
14074;SDS011;12831;52.392;13.066;2023-04-24T13:52:22;1.15;;;0.70;;
14074;SDS011;12831;52.392;13.066;2023-04-24T13:54:48;0.65;;;0.40;;
14074;SDS011;12831;52.392;13.066;2023-04-24T13:57:14;4.25;;;0.55;;
14074;SDS011;12831;52.392;13.066;2023-04-24T13:59:40;1.55;;;0.80;;
14074;SDS011;12831;52.392;13.066;2023-04-24T14:02:06;0.70;;;0.43;;
14074;SDS011;12831;52.392;13.066;2023-04-24T14:04:32;2.60;;;0.50;;
14074;SDS011;12831;52.392;13.066;2023-04-24T14:06:59;1.80;;;0.63;;
14074;SDS011;12831;52.392;13.066;2023-04-24T14:09:26;1.17;;;0.60;;
14074;SDS011;12831;52.392;13.066;2023-04-24T14:11:52;2.72;;;1.10;;
14074;SDS011;12831;52.392;13.066;2023-04-24T14:17:25;12.30;;;3.80;;
14074;SDS011;12831;52.392;13.066;2023-04-24T14:19:52;1.75;;;0.60;;
14074;SDS011;12831;52.392;13.066;2023-04-24T14:22:21;1.70;;;0.50;;
14074;SDS011;12831;52.392;13.066;2023-04-24T14:24:48;1.00;;;0.52;;
14074;SDS011;12831;52.392;13.066;2023-04-24T14:27:14;2.78;;;0.55;;
14074;SDS011;12831;52.392;13.066;2023-04-24T14:29:40;1.73;;;0.82;;
14074;SDS011;12831;52.392;13.066;2023-04-24T14:32:06;0.73;;;0.50;;
14074;SDS011;12831;52.392;13.066;2023-04-24T14:34:34;1.85;;;0.43;;
14074;SDS011;12831;52.392;13.066;2023-04-24T14:37:00;2.55;;;0.50;;
14074;SDS011;12831;52.392;13.066;2023-04-24T14:39:26;2.75;;;0.60;;
14074;SDS011;12831;52.392;13.066;2023-04-24T14:41:52;2.40;;;0.50;;
14074;SDS011;12831;52.392;13.066;2023-04-24T14:44:19;1.35;;;0.80;;
14074;SDS011;12831;52.392;13.066;2023-04-24T14:46:45;4.00;;;0.73;;
14074;SDS011;12831;52.392;13.066;2023-04-24T14:49:11;3.35;;;1.17;;
14074;SDS011;12831;52.392;13.066;2023-04-24T14:51:38;2.60;;;0.60;;
14074;SDS011;12831;52.392;13.066;2023-04-24T14:54:04;2.72;;;0.90;;
14074;SDS011;12831;52.392;13.066;2023-04-24T14:56:30;3.25;;;0.80;;
14074;SDS011;12831;52.392;13.066;2023-04-24T14:58:56;2.83;;;1.10;;
14074;SDS011;12831;52.392;13.066;2023-04-24T15:01:22;1.50;;;0.63;;
14074;SDS011;12831;52.392;13.066;2023-04-24T15:03:49;0.90;;;0.70;;
14074;SDS011;12831;52.392;13.066;2023-04-24T15:06:16;1.95;;;0.90;;
14074;SDS011;12831;52.392;13.066;2023-04-24T15:08:41;2.70;;;0.80;;